sensor_id;sensor_type;location;lat;lon;timestamp;pressure;altitude;pressure_sealevel;temperature;humidity
8653;BME280;4364;52.426;9.424;2023-01-10T00:00:25;100357.44;;;5.47;100.00
8653;BME280;4364;52.426;9.424;2023-01-10T00:02:52;100356.59;;;5.46;100.00
8653;BME280;4364;52.426;9.424;2023-01-10T00:05:18;100353.88;;;5.46;100.00
8653;BME280;4364;52.426;9.424;2023-01-10T00:07:45;100364.97;;;5.45;100.00
8653;BME280;4364;52.426;9.424;2023-01-10T00:10:11;100359.81;;;5.43;100.00
8653;BME280;4364;52.426;9.424;2023-01-10T00:12:39;100366.50;;;5.41;100.00
8653;BME280;4364;52.426;9.424;2023-01-10T00:15:24;100376.00;;;5.43;100.00
8653;BME280;4364;52.426;9.424;2023-01-10T00:17:51;100382.56;;;5.52;100.00
8653;BME280;4364;52.426;9.424;2023-01-10T00:20:17;100385.81;;;5.54;100.00
8653;BME280;4364;52.426;9.424;2023-01-10T00:22:44;100400.56;;;5.47;100.00
8653;BME280;4364;52.426;9.424;2023-01-10T00:25:11;100394.34;;;5.46;100.00
8653;BME280;4364;52.426;9.424;2023-01-10T00:27:37;100417.81;;;5.46;100.00
8653;BME280;4364;52.426;9.424;2023-01-10T00:30:05;100410.72;;;5.39;100.00
8653;BME280;4364;52.426;9.424;2023-01-10T00:32:40;100406.59;;;5.54;100.00
8653;BME280;4364;52.426;9.424;2023-01-10T00:35:07;100411.91;;;5.49;100.00
8653;BME280;4364;52.426;9.424;2023-01-10T00:37:34;100424.91;;;5.52;100.00
8653;BME280;4364;52.426;9.424;2023-01-10T00:40:03;100424.16;;;5.56;100.00
8653;BME280;4364;52.426;9.424;2023-01-10T00:42:29;100422.66;;;5.44;100.00
8653;BME280;4364;52.426;9.424;2023-01-10T00:45:14;100434.00;;;5.46;100.00
8653;BME280;4364;52.426;9.424;2023-01-10T00:47:41;100443.41;;;5.43;100.00
8653;BME280;4364;52.426;9.424;2023-01-10T00:50:08;100453.19;;;5.49;100.00
8653;BME280;4364;52.426;9.424;2023-01-10T00:52:35;100456.47;;;5.51;100.00
8653;BME280;4364;52.426;9.424;2023-01-10T00:55:02;100462.13;;;5.50;100.00
8653;BME280;4364;52.426;9.424;2023-01-10T00:57:29;100466.25;;;5.57;100.00
8653;BME280;4364;52.426;9.424;2023-01-10T00:59:55;100462.34;;;5.48;100.00
8653;BME280;4364;52.426;9.424;2023-01-10T01:02:22;100472.56;;;5.46;100.00
8653;BME280;4364;52.426;9.424;2023-01-10T01:04:48;100475.72;;;5.60;100.00
8653;BME280;4364;52.426;9.424;2023-01-10T01:07:15;100486.28;;;5.62;100.00
8653;BME280;4364;52.426;9.424;2023-01-10T01:09:41;100483.09;;;5.48;100.00
8653;BME280;4364;52.426;9.424;2023-01-10T01:12:28;100491.34;;;5.58;100.00
8653;BME280;4364;52.426;9.424;2023-01-10T01:14:54;100502.94;;;5.59;100.00
8653;BME280;4364;52.426;9.424;2023-01-10T01:17:21;100499.34;;;5.53;100.00
8653;BME280;4364;52.426;9.424;2023-01-10T01:19:47;100507.19;;;5.54;100.00
8653;BME280;4364;52.426;9.424;2023-01-10T01:22:14;100515.53;;;5.53;100.00
8653;BME280;4364;52.426;9.424;2023-01-10T01:24:40;100515.69;;;5.63;100.00
8653;BME280;4364;52.426;9.424;2023-01-10T01:27:07;100519.63;;;5.55;100.00
8653;BME280;4364;52.426;9.424;2023-01-10T01:29:33;100528.53;;;5.56;100.00
8653;BME280;4364;52.426;9.424;2023-01-10T01:32:08;100547.91;;;5.53;100.00
8653;BME280;4364;52.426;9.424;2023-01-10T01:34:35;100550.75;;;5.46;100.00
8653;BME280;4364;52.426;9.424;2023-01-10T01:37:02;100558.28;;;5.61;100.00
8653;BME280;4364;52.426;9.424;2023-01-10T01:39:28;100563.19;;;5.47;100.00
8653;BME280;4364;52.426;9.424;2023-01-10T01:41:54;100566.47;;;5.49;100.00
8653;BME280;4364;52.426;9.424;2023-01-10T01:44:30;100574.38;;;5.56;100.00
8653;BME280;4364;52.426;9.424;2023-01-10T01:49:31;100590.88;;;5.60;100.00
8653;BME280;4364;52.426;9.424;2023-01-10T01:52:03;100596.19;;;5.54;100.00
8653;BME280;4364;52.426;9.424;2023-01-10T01:54:31;100592.13;;;5.52;100.00
8653;BME280;4364;52.426;9.424;2023-01-10T01:57:06;100597.84;;;5.55;100.00
8653;BME280;4364;52.426;9.424;2023-01-10T01:59:37;100603.81;;;5.57;100.00
8653;BME280;4364;52.426;9.424;2023-01-10T02:02:18;100620.06;;;5.46;100.00
8653;BME280;4364;52.426;9.424;2023-01-10T02:05:04;100618.31;;;5.51;100.00
8653;BME280;4364;52.426;9.424;2023-01-10T02:07:36;100618.53;;;5.50;100.00
8653;BME280;4364;52.426;9.424;2023-01-10T02:10:11;100622.44;;;5.42;100.00
8653;BME280;4364;52.426;9.424;2023-01-10T02:12:41;100625.47;;;5.46;100.00
8653;BME280;4364;52.426;9.424;2023-01-10T02:15:10;100629.97;;;5.57;100.00
8653;BME280;4364;52.426;9.424;2023-01-10T02:17:38;100630.06;;;5.45;100.00
8653;BME280;4364;52.426;9.424;2023-01-10T02:20:06;100635.78;;;5.49;100.00
8653;BME280;4364;52.426;9.424;2023-01-10T02:22:59;100642.31;;;5.53;100.00
8653;BME280;4364;52.426;9.424;2023-01-10T02:34:19;100651.56;;;5.40;100.00
8653;BME280;4364;52.426;9.424;2023-01-10T02:39:28;100669.78;;;5.50;100.00
8653;BME280;4364;52.426;9.424;2023-01-10T02:42:08;100679.31;;;5.41;100.00
8653;BME280;4364;52.426;9.424;2023-01-10T02:44:53;100680.22;;;5.46;99.83
8653;BME280;4364;52.426;9.424;2023-01-10T02:47:23;100675.72;;;5.35;100.00
8653;BME280;4364;52.426;9.424;2023-01-10T02:49:50;100679.66;;;5.44;99.38
8653;BME280;4364;52.426;9.424;2023-01-10T02:52:21;100691.59;;;5.48;99.17
8653;BME280;4364;52.426;9.424;2023-01-10T02:54:50;100685.78;;;5.39;98.86
8653;BME280;4364;52.426;9.424;2023-01-10T03:03:14;100687.75;;;5.44;99.26
8653;BME280;4364;52.426;9.424;2023-01-10T03:05:59;100699.69;;;5.48;99.14
8653;BME280;4364;52.426;9.424;2023-01-10T03:08:37;100695.84;;;5.44;98.73
8653;BME280;4364;52.426;9.424;2023-01-10T03:11:07;100697.97;;;5.42;98.49
8653;BME280;4364;52.426;9.424;2023-01-10T03:16:11;100707.88;;;5.53;98.60
8653;BME280;4364;52.426;9.424;2023-01-10T03:18:43;100706.06;;;5.42;99.00
8653;BME280;4364;52.426;9.424;2023-01-10T03:21:12;100708.28;;;5.45;98.92
8653;BME280;4364;52.426;9.424;2023-01-10T03:23:39;100717.09;;;5.41;99.59
8653;BME280;4364;52.426;9.424;2023-01-10T03:26:07;100723.28;;;5.41;99.92
8653;BME280;4364;52.426;9.424;2023-01-10T03:28:44;100736.28;;;5.44;98.87
8653;BME280;4364;52.426;9.424;2023-01-10T03:31:20;100737.50;;;5.36;100.00
8653;BME280;4364;52.426;9.424;2023-01-10T03:33:48;100746.66;;;5.35;100.00
8653;BME280;4364;52.426;9.424;2023-01-10T03:36:31;100745.22;;;5.45;99.46
8653;BME280;4364;52.426;9.424;2023-01-10T03:39:12;100762.78;;;5.47;99.82
8653;BME280;4364;52.426;9.424;2023-01-10T03:41:48;100768.97;;;5.48;99.36
8653;BME280;4364;52.426;9.424;2023-01-10T03:47:45;100775.97;;;5.32;100.00
8653;BME280;4364;52.426;9.424;2023-01-10T03:50:17;100778.44;;;5.33;99.95
8653;BME280;4364;52.426;9.424;2023-01-10T03:52:45;100788.84;;;5.42;99.40
8653;BME280;4364;52.426;9.424;2023-01-10T03:55:17;100784.34;;;5.47;99.47
8653;BME280;4364;52.426;9.424;2023-01-10T03:57:44;100784.25;;;5.42;99.36
8653;BME280;4364;52.426;9.424;2023-01-10T04:00:12;100775.03;;;5.38;99.67
8653;BME280;4364;52.426;9.424;2023-01-10T04:02:39;100783.50;;;5.30;99.94
8653;BME280;4364;52.426;9.424;2023-01-10T04:05:06;100784.75;;;5.39;100.00
8653;BME280;4364;52.426;9.424;2023-01-10T04:07:33;100781.03;;;5.28;100.00
8653;BME280;4364;52.426;9.424;2023-01-10T04:10:00;100800.00;;;5.33;99.70
8653;BME280;4364;52.426;9.424;2023-01-10T04:12:26;100805.88;;;5.30;99.40
8653;BME280;4364;52.426;9.424;2023-01-10T04:14:53;100803.16;;;5.42;99.26
8653;BME280;4364;52.426;9.424;2023-01-10T04:17:19;100807.44;;;5.26;100.00
8653;BME280;4364;52.426;9.424;2023-01-10T04:19:45;100814.31;;;5.34;99.59
8653;BME280;4364;52.426;9.424;2023-01-10T04:22:12;100821.44;;;5.40;98.96
8653;BME280;4364;52.426;9.424;2023-01-10T04:24:38;100821.28;;;5.18;100.00
8653;BME280;4364;52.426;9.424;2023-01-10T04:27:05;100820.50;;;5.34;100.00
8653;BME280;4364;52.426;9.424;2023-01-10T04:29:32;100829.22;;;5.25;99.38
8653;BME280;4364;52.426;9.424;2023-01-10T04:31:58;100834.38;;;5.14;100.00
8653;BME280;4364;52.426;9.424;2023-01-10T04:34:24;100830.88;;;5.14;100.00
8653;BME280;4364;52.426;9.424;2023-01-10T04:36:51;100832.53;;;5.15;100.00
8653;BME280;4364;52.426;9.424;2023-01-10T04:39:17;100845.16;;;5.14;100.00
8653;BME280;4364;52.426;9.424;2023-01-10T04:41:44;100850.69;;;5.08;100.00
8653;BME280;4364;52.426;9.424;2023-01-10T04:44:10;100844.03;;;4.98;100.00
8653;BME280;4364;52.426;9.424;2023-01-10T04:46:37;100854.47;;;4.95;100.00
8653;BME280;4364;52.426;9.424;2023-01-10T04:49:03;100858.91;;;4.89;100.00
8653;BME280;4364;52.426;9.424;2023-01-10T04:51:30;100860.78;;;4.89;100.00
8653;BME280;4364;52.426;9.424;2023-01-10T04:53:57;100855.88;;;4.74;100.00
8653;BME280;4364;52.426;9.424;2023-01-10T04:56:23;100863.94;;;4.86;100.00
8653;BME280;4364;52.426;9.424;2023-01-10T04:58:50;100854.94;;;4.80;100.00
8653;BME280;4364;52.426;9.424;2023-01-10T05:01:23;100865.72;;;4.68;100.00
8653;BME280;4364;52.426;9.424;2023-01-10T05:03:53;100860.34;;;4.68;100.00
8653;BME280;4364;52.426;9.424;2023-01-10T05:06:21;100872.16;;;4.67;100.00
8653;BME280;4364;52.426;9.424;2023-01-10T05:08:47;100879.41;;;4.67;100.00
8653;BME280;4364;52.426;9.424;2023-01-10T05:11:14;100878.34;;;4.56;100.00
8653;BME280;4364;52.426;9.424;2023-01-10T05:13:41;100890.75;;;4.57;100.00
8653;BME280;4364;52.426;9.424;2023-01-10T05:16:07;100897.09;;;4.62;100.00
8653;BME280;4364;52.426;9.424;2023-01-10T05:18:34;100898.13;;;4.50;100.00
8653;BME280;4364;52.426;9.424;2023-01-10T05:21:06;100889.31;;;4.42;100.00
8653;BME280;4364;52.426;9.424;2023-01-10T05:23:34;100900.47;;;4.46;100.00
8653;BME280;4364;52.426;9.424;2023-01-10T05:26:10;100903.41;;;4.44;100.00
8653;BME280;4364;52.426;9.424;2023-01-10T05:28:37;100907.72;;;4.45;100.00
8653;BME280;4364;52.426;9.424;2023-01-10T05:31:06;100913.22;;;4.51;100.00
8653;BME280;4364;52.426;9.424;2023-01-10T05:33:33;100913.19;;;4.39;100.00
8653;BME280;4364;52.426;9.424;2023-01-10T05:36:01;100919.69;;;4.50;100.00
8653;BME280;4364;52.426;9.424;2023-01-10T05:38:31;100931.28;;;4.50;100.00
8653;BME280;4364;52.426;9.424;2023-01-10T05:40:58;100925.19;;;4.55;99.45
8653;BME280;4364;52.426;9.424;2023-01-10T05:43:27;100931.38;;;4.43;99.94
8653;BME280;4364;52.426;9.424;2023-01-10T05:45:53;100938.03;;;4.41;100.00
8653;BME280;4364;52.426;9.424;2023-01-10T05:48:20;100942.00;;;4.38;99.87
8653;BME280;4364;52.426;9.424;2023-01-10T05:50:48;100949.88;;;4.40;100.00
8653;BME280;4364;52.426;9.424;2023-01-10T05:53:16;100955.94;;;4.35;100.00
8653;BME280;4364;52.426;9.424;2023-01-10T05:55:42;100963.66;;;4.32;100.00
8653;BME280;4364;52.426;9.424;2023-01-10T05:58:09;100971.00;;;4.24;100.00
8653;BME280;4364;52.426;9.424;2023-01-10T06:00:38;100975.84;;;4.16;100.00
8653;BME280;4364;52.426;9.424;2023-01-10T06:03:05;100989.44;;;4.21;100.00
8653;BME280;4364;52.426;9.424;2023-01-10T06:05:32;100989.31;;;4.16;100.00
8653;BME280;4364;52.426;9.424;2023-01-10T06:07:58;100984.72;;;4.35;100.00
8653;BME280;4364;52.426;9.424;2023-01-10T06:10:25;100992.06;;;4.27;100.00
8653;BME280;4364;52.426;9.424;2023-01-10T06:12:52;100995.88;;;4.38;99.76
8653;BME280;4364;52.426;9.424;2023-01-10T06:15:19;100999.13;;;4.10;100.00
8653;BME280;4364;52.426;9.424;2023-01-10T06:17:45;101001.50;;;4.18;99.99
8653;BME280;4364;52.426;9.424;2023-01-10T06:20:12;101002.69;;;4.22;100.00
8653;BME280;4364;52.426;9.424;2023-01-10T06:22:40;101007.41;;;4.27;99.83
8653;BME280;4364;52.426;9.424;2023-01-10T06:25:11;101010.75;;;4.22;100.00
8653;BME280;4364;52.426;9.424;2023-01-10T06:27:42;101014.28;;;4.23;99.78
8653;BME280;4364;52.426;9.424;2023-01-10T06:30:10;101008.59;;;4.31;99.91
8653;BME280;4364;52.426;9.424;2023-01-10T06:32:37;101020.81;;;4.15;100.00
8653;BME280;4364;52.426;9.424;2023-01-10T06:35:04;101026.19;;;4.15;99.90
8653;BME280;4364;52.426;9.424;2023-01-10T06:37:31;101026.25;;;4.08;100.00
8653;BME280;4364;52.426;9.424;2023-01-10T06:39:58;101033.22;;;4.16;100.00
8653;BME280;4364;52.426;9.424;2023-01-10T06:42:24;101049.00;;;4.13;100.00
8653;BME280;4364;52.426;9.424;2023-01-10T06:44:51;101044.44;;;4.13;100.00
8653;BME280;4364;52.426;9.424;2023-01-10T06:47:17;101042.03;;;4.23;100.00
8653;BME280;4364;52.426;9.424;2023-01-10T06:49:43;101051.53;;;4.26;100.00
8653;BME280;4364;52.426;9.424;2023-01-10T06:52:10;101046.59;;;4.23;100.00
8653;BME280;4364;52.426;9.424;2023-01-10T06:54:36;101049.66;;;4.26;100.00
8653;BME280;4364;52.426;9.424;2023-01-10T06:57:03;101053.88;;;4.34;99.95
8653;BME280;4364;52.426;9.424;2023-01-10T06:59:30;101057.38;;;4.23;100.00
8653;BME280;4364;52.426;9.424;2023-01-10T07:01:56;101056.44;;;4.29;100.00
8653;BME280;4364;52.426;9.424;2023-01-10T07:04:23;101064.84;;;4.39;100.00
8653;BME280;4364;52.426;9.424;2023-01-10T07:06:49;101059.53;;;4.33;99.94
8653;BME280;4364;52.426;9.424;2023-01-10T07:09:16;101071.69;;;4.35;100.00
8653;BME280;4364;52.426;9.424;2023-01-10T07:11:42;101068.56;;;4.38;100.00
8653;BME280;4364;52.426;9.424;2023-01-10T07:14:09;101077.47;;;4.39;100.00
8653;BME280;4364;52.426;9.424;2023-01-10T07:16:35;101077.88;;;4.54;100.00
8653;BME280;4364;52.426;9.424;2023-01-10T07:19:02;101081.69;;;4.65;99.39
8653;BME280;4364;52.426;9.424;2023-01-10T07:21:29;101090.66;;;4.59;99.17
8653;BME280;4364;52.426;9.424;2023-01-10T07:23:55;101097.94;;;4.58;100.00
8653;BME280;4364;52.426;9.424;2023-01-10T07:26:21;101098.66;;;4.66;99.56
8653;BME280;4364;52.426;9.424;2023-01-10T07:28:49;101102.72;;;4.56;100.00
8653;BME280;4364;52.426;9.424;2023-01-10T07:31:18;101100.69;;;4.70;99.32
8653;BME280;4364;52.426;9.424;2023-01-10T07:33:45;101105.03;;;4.71;99.35
8653;BME280;4364;52.426;9.424;2023-01-10T07:36:11;101107.53;;;4.85;99.42
8653;BME280;4364;52.426;9.424;2023-01-10T07:38:38;101103.50;;;4.75;99.10
8653;BME280;4364;52.426;9.424;2023-01-10T07:41:04;101109.16;;;4.86;99.51
8653;BME280;4364;52.426;9.424;2023-01-10T07:43:32;101118.09;;;4.86;99.19
8653;BME280;4364;52.426;9.424;2023-01-10T07:46:00;101114.31;;;4.87;99.20
8653;BME280;4364;52.426;9.424;2023-01-10T07:48:27;101111.94;;;4.79;99.38
8653;BME280;4364;52.426;9.424;2023-01-10T07:50:58;101123.38;;;4.93;98.03
8653;BME280;4364;52.426;9.424;2023-01-10T07:53:27;101126.75;;;4.88;97.57
8653;BME280;4364;52.426;9.424;2023-01-10T07:55:58;101123.97;;;4.95;97.84
8653;BME280;4364;52.426;9.424;2023-01-10T07:58:28;101138.00;;;4.85;97.64
8653;BME280;4364;52.426;9.424;2023-01-10T08:00:58;101139.66;;;4.86;97.70
8653;BME280;4364;52.426;9.424;2023-01-10T08:03:26;101135.16;;;4.80;97.74
8653;BME280;4364;52.426;9.424;2023-01-10T08:06:01;101133.19;;;4.87;98.07
8653;BME280;4364;52.426;9.424;2023-01-10T08:08:28;101145.72;;;4.81;97.53
8653;BME280;4364;52.426;9.424;2023-01-10T08:10:55;101150.53;;;4.79;98.28
8653;BME280;4364;52.426;9.424;2023-01-10T08:13:22;101148.41;;;4.81;98.33
8653;BME280;4364;52.426;9.424;2023-01-10T08:15:49;101153.94;;;4.87;98.13
8653;BME280;4364;52.426;9.424;2023-01-10T08:18:18;101155.47;;;4.94;98.41
8653;BME280;4364;52.426;9.424;2023-01-10T08:20:45;101159.66;;;5.09;97.15
8653;BME280;4364;52.426;9.424;2023-01-10T08:23:13;101165.13;;;5.02;96.71
8653;BME280;4364;52.426;9.424;2023-01-10T08:25:40;101162.03;;;5.17;96.34
8653;BME280;4364;52.426;9.424;2023-01-10T08:28:07;101163.63;;;5.06;96.44
8653;BME280;4364;52.426;9.424;2023-01-10T08:30:33;101172.31;;;5.08;96.38
8653;BME280;4364;52.426;9.424;2023-01-10T08:33:01;101171.75;;;5.18;96.05
8653;BME280;4364;52.426;9.424;2023-01-10T08:35:29;101151.56;;;5.09;96.09
8653;BME280;4364;52.426;9.424;2023-01-10T08:37:59;101130.09;;;5.02;96.01
8653;BME280;4364;52.426;9.424;2023-01-10T08:40:26;101135.25;;;5.04;96.28
8653;BME280;4364;52.426;9.424;2023-01-10T08:43:00;101141.69;;;5.03;96.60
8653;BME280;4364;52.426;9.424;2023-01-10T08:45:27;101136.47;;;4.89;97.18
8653;BME280;4364;52.426;9.424;2023-01-10T08:47:53;101133.19;;;4.87;97.17
8653;BME280;4364;52.426;9.424;2023-01-10T08:50:20;101133.69;;;4.96;97.36
8653;BME280;4364;52.426;9.424;2023-01-10T08:52:46;101142.75;;;5.01;96.83
8653;BME280;4364;52.426;9.424;2023-01-10T08:55:13;101148.31;;;4.88;97.20
8653;BME280;4364;52.426;9.424;2023-01-10T08:57:39;101160.94;;;4.88;97.42
8653;BME280;4364;52.426;9.424;2023-01-10T09:00:06;101162.56;;;5.07;96.90
8653;BME280;4364;52.426;9.424;2023-01-10T09:02:33;101167.38;;;5.05;96.95
8653;BME280;4364;52.426;9.424;2023-01-10T09:05:00;101170.56;;;5.14;96.89
8653;BME280;4364;52.426;9.424;2023-01-10T09:07:27;101176.44;;;5.23;96.17
8653;BME280;4364;52.426;9.424;2023-01-10T09:09:53;101179.97;;;5.23;96.10
8653;BME280;4364;52.426;9.424;2023-01-10T09:12:20;101192.41;;;5.24;95.98
8653;BME280;4364;52.426;9.424;2023-01-10T09:15:05;101192.06;;;5.32;95.53
8653;BME280;4364;52.426;9.424;2023-01-10T09:17:32;101193.50;;;5.35;95.32
8653;BME280;4364;52.426;9.424;2023-01-10T09:19:58;101201.38;;;5.36;95.81
8653;BME280;4364;52.426;9.424;2023-01-10T09:22:26;101195.13;;;5.36;95.35
8653;BME280;4364;52.426;9.424;2023-01-10T09:24:52;101205.94;;;5.48;95.17
8653;BME280;4364;52.426;9.424;2023-01-10T09:27:19;101206.16;;;5.34;95.10
8653;BME280;4364;52.426;9.424;2023-01-10T09:29:45;101208.97;;;5.39;95.12
8653;BME280;4364;52.426;9.424;2023-01-10T09:32:12;101210.28;;;5.37;94.60
8653;BME280;4364;52.426;9.424;2023-01-10T09:34:38;101220.28;;;5.48;93.88
8653;BME280;4364;52.426;9.424;2023-01-10T09:37:04;101217.91;;;5.40;94.57
8653;BME280;4364;52.426;9.424;2023-01-10T09:39:32;101218.84;;;5.46;95.27
8653;BME280;4364;52.426;9.424;2023-01-10T09:42:29;101216.75;;;5.48;94.61
8653;BME280;4364;52.426;9.424;2023-01-10T09:45:17;101222.63;;;5.45;95.14
8653;BME280;4364;52.426;9.424;2023-01-10T09:47:52;101232.00;;;5.54;94.26
8653;BME280;4364;52.426;9.424;2023-01-10T09:53:19;101237.19;;;5.55;94.50
8653;BME280;4364;52.426;9.424;2023-01-10T09:55:53;101249.75;;;5.62;94.22
8653;BME280;4364;52.426;9.424;2023-01-10T09:58:23;101249.44;;;5.70;93.81
8653;BME280;4364;52.426;9.424;2023-01-10T10:00:55;101248.09;;;5.61;93.48
8653;BME280;4364;52.426;9.424;2023-01-10T10:03:47;101241.44;;;5.63;92.94
8653;BME280;4364;52.426;9.424;2023-01-10T10:06:17;101248.69;;;5.63;94.17
8653;BME280;4364;52.426;9.424;2023-01-10T10:08:45;101241.56;;;5.68;93.17
8653;BME280;4364;52.426;9.424;2023-01-10T10:20:18;101245.56;;;5.78;93.25
8653;BME280;4364;52.426;9.424;2023-01-10T10:26:16;101246.41;;;5.78;91.29
8653;BME280;4364;52.426;9.424;2023-01-10T10:36:51;101246.03;;;5.86;91.40
8653;BME280;4364;52.426;9.424;2023-01-10T10:39:24;101252.97;;;5.82;91.40
8653;BME280;4364;52.426;9.424;2023-01-10T10:41:54;101261.19;;;5.87;90.62
8653;BME280;4364;52.426;9.424;2023-01-10T10:46:58;101257.44;;;5.88;90.42
8653;BME280;4364;52.426;9.424;2023-01-10T10:49:36;101245.91;;;5.81;90.34
8653;BME280;4364;52.426;9.424;2023-01-10T10:52:11;101247.81;;;5.81;89.82
8653;BME280;4364;52.426;9.424;2023-01-10T10:54:40;101258.38;;;5.82;89.43
8653;BME280;4364;52.426;9.424;2023-01-10T10:57:08;101257.97;;;5.97;89.62
8653;BME280;4364;52.426;9.424;2023-01-10T10:59:36;101251.59;;;5.91;89.21
8653;BME280;4364;52.426;9.424;2023-01-10T11:02:12;101258.91;;;6.03;88.97
8653;BME280;4364;52.426;9.424;2023-01-10T11:04:43;101273.13;;;6.10;88.64
8653;BME280;4364;52.426;9.424;2023-01-10T11:07:15;101257.56;;;5.93;88.08
8653;BME280;4364;52.426;9.424;2023-01-10T11:09:43;101267.09;;;5.96;88.50
8653;BME280;4364;52.426;9.424;2023-01-10T11:12:31;101264.59;;;5.94;88.90
8653;BME280;4364;52.426;9.424;2023-01-10T11:15:01;101263.34;;;5.97;88.69
8653;BME280;4364;52.426;9.424;2023-01-10T11:17:30;101265.25;;;5.97;88.73
8653;BME280;4364;52.426;9.424;2023-01-10T11:22:48;101265.84;;;5.99;89.12
8653;BME280;4364;52.426;9.424;2023-01-10T11:25:20;101275.31;;;6.01;89.10
8653;BME280;4364;52.426;9.424;2023-01-10T11:27:51;101267.59;;;6.05;89.07
8653;BME280;4364;52.426;9.424;2023-01-10T11:30:21;101266.06;;;6.09;89.04
8653;BME280;4364;52.426;9.424;2023-01-10T11:32:52;101276.06;;;6.08;89.07
8653;BME280;4364;52.426;9.424;2023-01-10T11:35:23;101259.28;;;6.18;88.91
8653;BME280;4364;52.426;9.424;2023-01-10T11:38:02;101270.66;;;6.08;89.49
8653;BME280;4364;52.426;9.424;2023-01-10T11:40:30;101262.09;;;6.11;89.09
8653;BME280;4364;52.426;9.424;2023-01-10T11:42:58;101263.72;;;6.24;89.21
8653;BME280;4364;52.426;9.424;2023-01-10T11:45:32;101265.84;;;6.22;89.03
8653;BME280;4364;52.426;9.424;2023-01-10T11:48:22;101265.03;;;6.22;88.38
8653;BME280;4364;52.426;9.424;2023-01-10T11:51:23;101262.34;;;6.10;88.09
8653;BME280;4364;52.426;9.424;2023-01-10T11:53:57;101256.72;;;6.23;87.66
8653;BME280;4364;52.426;9.424;2023-01-10T11:56:27;101252.81;;;6.19;88.04
8653;BME280;4364;52.426;9.424;2023-01-10T11:58:56;101248.22;;;6.20;88.15
8653;BME280;4364;52.426;9.424;2023-01-10T12:01:30;101257.84;;;6.04;87.50
8653;BME280;4364;52.426;9.424;2023-01-10T12:04:01;101244.59;;;6.14;86.81
8653;BME280;4364;52.426;9.424;2023-01-10T12:06:28;101252.22;;;6.17;87.01
8653;BME280;4364;52.426;9.424;2023-01-10T12:08:55;101248.94;;;6.27;86.09
8653;BME280;4364;52.426;9.424;2023-01-10T12:11:27;101248.59;;;6.35;86.91
8653;BME280;4364;52.426;9.424;2023-01-10T12:13:57;101248.03;;;6.45;86.08
8653;BME280;4364;52.426;9.424;2023-01-10T12:18:57;101247.41;;;6.55;85.48
8653;BME280;4364;52.426;9.424;2023-01-10T12:21:38;101249.75;;;6.63;84.81
8653;BME280;4364;52.426;9.424;2023-01-10T12:24:15;101244.94;;;6.65;84.52
8653;BME280;4364;52.426;9.424;2023-01-10T12:26:45;101249.28;;;6.66;84.48
8653;BME280;4364;52.426;9.424;2023-01-10T12:29:20;101247.16;;;6.56;83.67
8653;BME280;4364;52.426;9.424;2023-01-10T12:31:49;101253.31;;;6.52;84.08
8653;BME280;4364;52.426;9.424;2023-01-10T12:34:29;101239.91;;;6.45;84.55
8653;BME280;4364;52.426;9.424;2023-01-10T12:37:14;101242.63;;;6.45;84.77
8653;BME280;4364;52.426;9.424;2023-01-10T12:39:54;101248.47;;;6.42;85.59
8653;BME280;4364;52.426;9.424;2023-01-10T12:42:44;101244.13;;;6.41;85.46
8653;BME280;4364;52.426;9.424;2023-01-10T12:45:38;101246.47;;;6.37;85.44
8653;BME280;4364;52.426;9.424;2023-01-10T12:48:16;101249.41;;;6.36;86.16
8653;BME280;4364;52.426;9.424;2023-01-10T12:50:51;101250.84;;;6.50;85.48
8653;BME280;4364;52.426;9.424;2023-01-10T12:53:29;101249.88;;;6.56;84.98
8653;BME280;4364;52.426;9.424;2023-01-10T12:55:57;101238.84;;;6.34;85.88
8653;BME280;4364;52.426;9.424;2023-01-10T13:01:05;101242.13;;;6.36;86.21
8653;BME280;4364;52.426;9.424;2023-01-10T13:03:33;101237.31;;;6.50;85.79
8653;BME280;4364;52.426;9.424;2023-01-10T13:06:03;101244.59;;;6.49;85.55
8653;BME280;4364;52.426;9.424;2023-01-10T13:08:34;101243.78;;;6.49;85.86
8653;BME280;4364;52.426;9.424;2023-01-10T13:11:03;101241.19;;;6.54;84.30
8653;BME280;4364;52.426;9.424;2023-01-10T13:13:37;101230.63;;;6.41;85.27
8653;BME280;4364;52.426;9.424;2023-01-10T13:21:28;101229.22;;;6.50;83.98
8653;BME280;4364;52.426;9.424;2023-01-10T13:24:00;101239.66;;;6.46;83.86
8653;BME280;4364;52.426;9.424;2023-01-10T13:29:24;101240.13;;;6.55;83.36
8653;BME280;4364;52.426;9.424;2023-01-10T13:31:51;101242.22;;;6.53;83.32
8653;BME280;4364;52.426;9.424;2023-01-10T13:34:25;101241.88;;;6.49;84.01
8653;BME280;4364;52.426;9.424;2023-01-10T13:37:49;101237.06;;;6.40;83.86
8653;BME280;4364;52.426;9.424;2023-01-10T13:39:57;101228.59;;;6.48;83.39
8653;BME280;4364;52.426;9.424;2023-01-10T13:42:35;101236.13;;;6.46;83.82
8653;BME280;4364;52.426;9.424;2023-01-10T13:52:53;101220.28;;;6.49;82.82
8653;BME280;4364;52.426;9.424;2023-01-10T13:57:58;101235.44;;;6.51;80.69
8653;BME280;4364;52.426;9.424;2023-01-10T14:03:40;101234.38;;;6.40;80.85
8653;BME280;4364;52.426;9.424;2023-01-10T14:09:43;101230.16;;;6.44;81.88
8653;BME280;4364;52.426;9.424;2023-01-10T14:14:31;101216.41;;;6.45;81.69
8653;BME280;4364;52.426;9.424;2023-01-10T14:19:46;101212.53;;;6.41;82.66
8653;BME280;4364;52.426;9.424;2023-01-10T14:22:26;101195.25;;;6.54;82.24
8653;BME280;4364;52.426;9.424;2023-01-10T14:24:54;101201.00;;;6.46;81.84
8653;BME280;4364;52.426;9.424;2023-01-10T14:27:21;101204.06;;;6.49;81.29
8653;BME280;4364;52.426;9.424;2023-01-10T14:29:58;101207.84;;;6.48;81.47
8653;BME280;4364;52.426;9.424;2023-01-10T14:35:12;101196.66;;;6.33;81.13
8653;BME280;4364;52.426;9.424;2023-01-10T14:37:43;101197.50;;;6.34;80.89
8653;BME280;4364;52.426;9.424;2023-01-10T14:40:39;101198.69;;;6.26;81.00
8653;BME280;4364;52.426;9.424;2023-01-10T14:43:11;101195.75;;;6.27;81.05
8653;BME280;4364;52.426;9.424;2023-01-10T14:45:47;101193.16;;;6.21;80.81
8653;BME280;4364;52.426;9.424;2023-01-10T14:48:28;101197.75;;;6.20;81.19
8653;BME280;4364;52.426;9.424;2023-01-10T14:51:08;101196.91;;;6.20;81.00
8653;BME280;4364;52.426;9.424;2023-01-10T14:53:34;101198.22;;;6.17;81.36
8653;BME280;4364;52.426;9.424;2023-01-10T14:56:01;101192.25;;;6.15;81.14
8653;BME280;4364;52.426;9.424;2023-01-10T14:58:28;101191.41;;;6.15;81.89
8653;BME280;4364;52.426;9.424;2023-01-10T15:00:54;101190.47;;;6.21;81.97
8653;BME280;4364;52.426;9.424;2023-01-10T15:03:23;101180.59;;;6.15;81.63
8653;BME280;4364;52.426;9.424;2023-01-10T15:05:56;101186.72;;;6.10;82.54